EDT,Max TemperatureF,Mean TemperatureF,Min TemperatureF,Max Dew PointF,MeanDew PointF,Min DewpointF,Max Humidity, Mean Humidity, Min Humidity, Max Sea Level PressureIn, Mean Sea Level PressureIn, Min Sea Level PressureIn, Max VisibilityMiles, Mean VisibilityMiles, Min VisibilityMiles, Max Wind SpeedMPH, Mean Wind SpeedMPH, Max Gust SpeedMPH,PrecipitationIn, CloudCover, Events, WindDirDegrees
2011-10-1,42,40,37,36,32,30,87,72,61,29.97,29.90,29.85,10,10,5,24,13,33,0.01,7,Rain,323
2011-10-2,48,42,35,36,29,25,87,64,40,30.03,29.98,29.94,10,10,5,26,18,41,0.00,4,Rain,320
2011-10-3,55,48,41,36,30,28,65,53,41,30.13,30.06,29.99,10,10,10,24,16,36,0.00,1,,314
2011-10-4,64,56,48,45,41,36,66,56,45,30.29,30.24,30.18,10,10,10,16,9,24,0.00,2,,322
2011-10-5,71,58,44,46,39,32,93,55,23,30.35,30.30,30.27,10,10,7,8,3,,0.00,0,,8
2011-10-6,64,54,44,50,45,41,93,68,52,30.41,30.37,30.32,10,10,10,6,1,,0.00,0,,151
2011-10-7,68,55,42,52,47,41,100,78,49,30.47,30.44,30.40,10,7,0,7,1,,0.00,1,Fog,171
2011-10-8,64,53,42,46,44,41,93,71,42,30.55,30.50,30.46,10,10,7,6,1,,0.00,0,,151
2011-10-9,62,55,48,46,44,41,87,69,48,30.49,30.44,30.38,10,10,10,13,2,21,0.00,2,,112
2011-10-10,64,58,51,45,43,36,76,62,34,30.39,30.30,30.21,10,10,10,15,2,21,0.00,4,,99
2011-10-11,55,52,50,52,48,45,94,83,67,30.20,30.14,30.04,10,8,2,13,4,26,0.01,8,Rain,104
2011-10-12,68,59,50,59,52,48,100,86,60,30.00,29.92,29.85,10,6,1,5,1,,0.44,7,Rain,53
2011-10-13,62,58,53,59,55,50,100,88,72,29.86,29.72,29.63,10,5,0,8,1,22,0.16,8,Fog-Rain,157
2011-10-14,59,54,50,50,42,34,94,65,39,29.75,29.69,29.63,10,10,5,36,13,51,0.09,6,Rain,296
2011-10-15,59,52,46,32,29,23,57,41,25,29.99,29.94,29.87,10,10,10,29,11,38,0.00,0,,291
2011-10-16,71,60,50,39,28,23,43,30,19,30.17,30.10,30.03,10,10,10,24,14,33,0.00,0,,280
2011-10-17,73,68,62,48,41,28,59,41,26,30.01,29.97,29.93,10,10,10,29,14,43,0.00,0,,277
2011-10-18,71,60,50,50,46,43,82,55,38,29.95,29.88,29.78,10,10,7,8,3,18,0.00,1,Rain,168
2011-10-19,55,48,41,54,50,37,100,93,81,29.71,29.50,29.34,10,5,0,29,5,34,0.69,8,Rain,149
2011-10-20,42,40,37,34,32,30,87,76,65,29.86,29.64,29.45,10,10,4,28,17,39,0.00,8,Rain,271
2011-10-21,51,44,37,32,31,30,81,61,44,30.12,30.03,29.92,10,10,10,22,11,34,0.00,3,,297
2011-10-22,59,46,33,36,31,27,93,62,29,30.16,30.12,30.08,10,10,10,6,2,,0.00,0,,335
2011-10-23,59,46,33,37,34,30,93,66,42,30.16,30.11,30.08,10,10,7,8,2,,0.00,0,,159
2011-10-24,62,52,42,39,35,30,87,54,32,30.15,30.12,30.09,10,10,10,15,3,23,0.00,2,,284
2011-10-25,64,56,48,41,36,27,67,50,27,30.29,30.23,30.18,10,10,7,15,7,22,0.00,0,,322
2011-10-26,66,58,50,43,38,32,66,48,34,30.18,30.06,29.98,10,10,10,20,4,31,0.00,1,,262
2011-10-27,64,58,53,50,43,37,88,58,45,29.95,29.88,29.84,10,10,5,26,11,37,0.00,4,Rain,279
2011-10-28,44,38,33,41,36,32,100,89,81,30.08,30.04,29.98,10,6,1,9,5,,0.06,8,Rain,93
2011-10-29,39,36,32,34,30,23,100,83,56,30.04,29.96,29.91,10,8,1,21,6,32,0.04,6,Rain-Snow,334
2011-10-30,50,42,33,30,27,19,81,60,30,30.27,30.19,30.09,10,10,10,13,6,18,0.00,0,,297
2011-10-31,46,39,32,32,30,27,87,71,57,30.26,30.21,30.16,10,10,10,7,1,,0.00,3,Rain,149